SAS616 ENBR-ENGM
Flight info
| Callsign | SAS616 |
|---|---|
| Flight time | 0h 37m |
| Altitude | 29000 |
| Route | GOKAB DCT ULVAN DCT ADOPI |
| Aircraft | A320/M-SDE3FGHIRWY/LB1 |
Departure
| Time | 2026-05-04 17:56 |
|---|---|
| Airport | Bergen Airport, Flesland (ENBR) |
Arrival
| Time | 2026-05-04 18:34 |
|---|---|
| Airport | Oslo-Gardermoen International Airport (ENGM) |
| Time | Latitude | Longitude | Altitude | Speed | Heading |
|---|---|---|---|---|---|
| 2026-05-04 17:34 | 60.28621 | 5.22950 | 173 ft | 0 kts | 80° |
| 2026-05-04 17:49 | 60.28618 | 5.22913 | 174 ft | 5 kts | 79° |
| 2026-05-04 17:49 | 60.28612 | 5.22850 | 174 ft | 4 kts | 80° |
| 2026-05-04 17:49 | 60.28610 | 5.22818 | 173 ft | 2 kts | 80° |
| 2026-05-04 17:49 | 60.28609 | 5.22808 | 172 ft | 0 kts | 81° |
| 2026-05-04 17:53 | 60.28625 | 5.22809 | 172 ft | 6 kts | 328° |
| 2026-05-04 17:53 | 60.28674 | 5.22715 | 169 ft | 13 kts | 291° |
| 2026-05-04 17:53 | 60.28669 | 5.22496 | 166 ft | 16 kts | 284° |
| 2026-05-04 17:54 | 60.28631 | 5.22376 | 165 ft | 14 kts | 169° |
| 2026-05-04 17:54 | 60.28520 | 5.22414 | 163 ft | 18 kts | 171° |
| 2026-05-04 17:54 | 60.28398 | 5.22455 | 162 ft | 18 kts | 170° |
| 2026-05-04 17:54 | 60.28285 | 5.22433 | 155 ft | 16 kts | 239° |
| 2026-05-04 17:55 | 60.28273 | 5.22239 | 155 ft | 14 kts | 268° |
| 2026-05-04 17:55 | 60.28325 | 5.22158 | 159 ft | 10 kts | 352° |
| 2026-05-04 17:55 | 60.28388 | 5.22137 | 160 ft | 18 kts | 350° |
| 2026-05-04 17:55 | 60.28769 | 5.22008 | 163 ft | 91 kts | 351° |
| 2026-05-04 17:56 | 60.29589 | 5.21728 | 151 ft | 146 kts | 351° |
| 2026-05-04 17:56 | 60.30618 | 5.21385 | 675 ft | 148 kts | 347° |
| 2026-05-04 17:56 | 60.31634 | 5.21041 | 1456 ft | 148 kts | 347° |
| 2026-05-04 17:56 | 60.32709 | 5.20676 | 1876 ft | 167 kts | 348° |
| 2026-05-04 17:57 | 60.33947 | 5.20248 | 2267 ft | 193 kts | 348° |
| 2026-05-04 17:57 | 60.35352 | 5.19764 | 2759 ft | 217 kts | 348° |
| 2026-05-04 17:57 | 60.36900 | 5.19236 | 3316 ft | 237 kts | 348° |
| 2026-05-04 17:57 | 60.38560 | 5.18676 | 4255 ft | 244 kts | 348° |
| 2026-05-04 17:58 | 60.40251 | 5.18110 | 5257 ft | 249 kts | 348° |
| 2026-05-04 17:58 | 60.41974 | 5.17531 | 6250 ft | 252 kts | 347° |
| 2026-05-04 17:58 | 60.43721 | 5.16944 | 7213 ft | 256 kts | 346° |
| 2026-05-04 17:58 | 60.45497 | 5.16400 | 8172 ft | 261 kts | 352° |
| 2026-05-04 17:59 | 60.47338 | 5.16955 | 9061 ft | 278 kts | 16° |
| 2026-05-04 17:59 | 60.48968 | 5.19241 | 9950 ft | 297 kts | 43° |
| 2026-05-04 17:59 | 60.49996 | 5.27524 | 11401 ft | 328 kts | 101° |
| 2026-05-04 18:00 | 60.49150 | 5.31832 | 12131 ft | 332 kts | 127° |
| 2026-05-04 18:00 | 60.47515 | 5.35212 | 12441 ft | 342 kts | 154° |
| 2026-05-04 18:00 | 60.45302 | 5.36902 | 12795 ft | 340 kts | 181° |
| 2026-05-04 18:00 | 60.42935 | 5.37340 | 13471 ft | 346 kts | 181° |
| 2026-05-04 18:01 | 60.40529 | 5.38342 | 14176 ft | 362 kts | 169° |
| 2026-05-04 18:01 | 60.38275 | 5.40907 | 14878 ft | 385 kts | 146° |
| 2026-05-04 18:01 | 60.36561 | 5.45225 | 15484 ft | 405 kts | 121° |
| 2026-05-04 18:02 | 60.36104 | 5.56490 | 16626 ft | 418 kts | 67° |
| 2026-05-04 18:02 | 60.37273 | 5.61869 | 17212 ft | 419 kts | 58° |
| 2026-05-04 18:02 | 60.38471 | 5.67331 | 17754 ft | 429 kts | 63° |
| 2026-05-04 18:02 | 60.39352 | 5.73186 | 18309 ft | 441 kts | 75° |
| 2026-05-04 18:03 | 60.39854 | 5.79370 | 18846 ft | 448 kts | 79° |
| 2026-05-04 18:03 | 60.40269 | 5.85651 | 19446 ft | 453 kts | 81° |
| 2026-05-04 18:03 | 60.40634 | 5.92014 | 20001 ft | 458 kts | 81° |
| 2026-05-04 18:03 | 60.40975 | 5.98469 | 20548 ft | 464 kts | 82° |
| 2026-05-04 18:04 | 60.41302 | 6.05001 | 21083 ft | 469 kts | 82° |
| 2026-05-04 18:04 | 60.41628 | 6.11507 | 21619 ft | 473 kts | 82° |
| 2026-05-04 18:04 | 60.42324 | 6.24866 | 22817 ft | 481 kts | 81° |
| 2026-05-04 18:05 | 60.42688 | 6.31648 | 23337 ft | 487 kts | 81° |
| 2026-05-04 18:05 | 60.43056 | 6.38498 | 23755 ft | 492 kts | 81° |
| 2026-05-04 18:05 | 60.43286 | 6.45432 | 24110 ft | 496 kts | 90° |
| 2026-05-04 18:05 | 60.43132 | 6.52427 | 24578 ft | 499 kts | 93° |
| 2026-05-04 18:06 | 60.42739 | 6.66527 | 25520 ft | 504 kts | 93° |
| 2026-05-04 18:06 | 60.42540 | 6.73629 | 25994 ft | 506 kts | 93° |
| 2026-05-04 18:06 | 60.42339 | 6.80674 | 26438 ft | 510 kts | 93° |
| 2026-05-04 18:07 | 60.42131 | 6.87865 | 26844 ft | 513 kts | 93° |
| 2026-05-04 18:07 | 60.41920 | 6.95107 | 27267 ft | 516 kts | 93° |
| 2026-05-04 18:07 | 60.41701 | 7.02383 | 27684 ft | 518 kts | 94° |
| 2026-05-04 18:07 | 60.41474 | 7.09673 | 28069 ft | 521 kts | 94° |
| 2026-05-04 18:08 | 60.41240 | 7.17010 | 28490 ft | 523 kts | 94° |
| 2026-05-04 18:08 | 60.41005 | 7.24361 | 28789 ft | 525 kts | 94° |
| 2026-05-04 18:08 | 60.40768 | 7.31663 | 28827 ft | 512 kts | 94° |
| 2026-05-04 18:08 | 60.40535 | 7.38745 | 28827 ft | 500 kts | 94° |
| 2026-05-04 18:09 | 60.39582 | 7.66286 | 28810 ft | 488 kts | 94° |
| 2026-05-04 18:10 | 60.39088 | 7.79972 | 28812 ft | 488 kts | 95° |
| 2026-05-04 18:10 | 60.38585 | 7.93668 | 28796 ft | 488 kts | 95° |
| 2026-05-04 18:11 | 60.38070 | 8.07398 | 28799 ft | 498 kts | 95° |
| 2026-05-04 18:11 | 60.37527 | 8.21459 | 28049 ft | 497 kts | 95° |
| 2026-05-04 18:12 | 60.37252 | 8.28388 | 27056 ft | 492 kts | 95° |
| 2026-05-04 18:12 | 60.36973 | 8.35279 | 26275 ft | 491 kts | 95° |
| 2026-05-04 18:12 | 60.36695 | 8.42040 | 25818 ft | 488 kts | 95° |
| 2026-05-04 18:12 | 60.36411 | 8.48865 | 25362 ft | 485 kts | 95° |
| 2026-05-04 18:13 | 60.36124 | 8.55681 | 24784 ft | 487 kts | 96° |
| 2026-05-04 18:13 | 60.35833 | 8.62439 | 24486 ft | 481 kts | 96° |
| 2026-05-04 18:13 | 60.35249 | 8.75858 | 23610 ft | 478 kts | 96° |
| 2026-05-04 18:14 | 60.34957 | 8.82505 | 23008 ft | 472 kts | 96° |
| 2026-05-04 18:14 | 60.34664 | 8.89071 | 22110 ft | 467 kts | 96° |
| 2026-05-04 18:14 | 60.34377 | 8.95490 | 21350 ft | 459 kts | 96° |
| 2026-05-04 18:15 | 60.33814 | 9.08009 | 20191 ft | 435 kts | 96° |
| 2026-05-04 18:15 | 60.33256 | 9.19879 | 19154 ft | 414 kts | 97° |
| 2026-05-04 18:15 | 60.32979 | 9.25598 | 18649 ft | 405 kts | 97° |
| 2026-05-04 18:16 | 60.32705 | 9.31227 | 18167 ft | 403 kts | 97° |
| 2026-05-04 18:16 | 60.32565 | 9.36893 | 17680 ft | 405 kts | 86° |
| 2026-05-04 18:16 | 60.32940 | 9.42494 | 17272 ft | 400 kts | 72° |
| 2026-05-04 18:17 | 60.34411 | 9.53206 | 16415 ft | 394 kts | 71° |
| 2026-05-04 18:17 | 60.35126 | 9.58431 | 16142 ft | 387 kts | 71° |
| 2026-05-04 18:17 | 60.36540 | 9.68842 | 15363 ft | 379 kts | 71° |
| 2026-05-04 18:18 | 60.37235 | 9.73979 | 14874 ft | 376 kts | 71° |
| 2026-05-04 18:18 | 60.37917 | 9.79045 | 14407 ft | 372 kts | 72° |
| 2026-05-04 18:18 | 60.38589 | 9.84048 | 13991 ft | 366 kts | 71° |
| 2026-05-04 18:18 | 60.39251 | 9.88983 | 13685 ft | 359 kts | 72° |
| 2026-05-04 18:19 | 60.40540 | 9.98581 | 12844 ft | 349 kts | 72° |
| 2026-05-04 18:19 | 60.41174 | 10.03302 | 12495 ft | 346 kts | 72° |
| 2026-05-04 18:19 | 60.41800 | 10.07981 | 12062 ft | 345 kts | 72° |
| 2026-05-04 18:20 | 60.42420 | 10.12636 | 11809 ft | 339 kts | 72° |
| 2026-05-04 18:20 | 60.43031 | 10.17246 | 11432 ft | 337 kts | 73° |
| 2026-05-04 18:20 | 60.43636 | 10.21823 | 10977 ft | 338 kts | 73° |
| 2026-05-04 18:20 | 60.44222 | 10.26307 | 10769 ft | 330 kts | 73° |
| 2026-05-04 18:21 | 60.44809 | 10.30800 | 10402 ft | 329 kts | 73° |
| 2026-05-04 18:21 | 60.45391 | 10.35250 | 10175 ft | 323 kts | 73° |
| 2026-05-04 18:21 | 60.46185 | 10.39385 | 10037 ft | 308 kts | 54° |
| 2026-05-04 18:21 | 60.47505 | 10.42622 | 9917 ft | 290 kts | 34° |
| 2026-05-04 18:22 | 60.49149 | 10.44749 | 9798 ft | 272 kts | 16° |
| 2026-05-04 18:22 | 60.50914 | 10.45761 | 9695 ft | 257 kts | 1° |
| 2026-05-04 18:22 | 60.52658 | 10.46350 | 9702 ft | 254 kts | 2° |
| 2026-05-04 18:22 | 60.54403 | 10.46922 | 9706 ft | 253 kts | 1° |
| 2026-05-04 18:23 | 60.56138 | 10.47494 | 9708 ft | 252 kts | 1° |
| 2026-05-04 18:23 | 60.57850 | 10.48538 | 9704 ft | 262 kts | 19° |
| 2026-05-04 18:23 | 60.59410 | 10.50564 | 9684 ft | 272 kts | 37° |
| 2026-05-04 18:23 | 60.60522 | 10.53707 | 9546 ft | 279 kts | 66° |
| 2026-05-04 18:24 | 60.60847 | 10.57588 | 9405 ft | 281 kts | 96° |
| 2026-05-04 18:24 | 60.60301 | 10.61295 | 9268 ft | 276 kts | 123° |
| 2026-05-04 18:24 | 60.59329 | 10.64675 | 9132 ft | 276 kts | 124° |
| 2026-05-04 18:24 | 60.58354 | 10.68040 | 8994 ft | 276 kts | 124° |
| 2026-05-04 18:25 | 60.57381 | 10.71398 | 8854 ft | 275 kts | 124° |
| 2026-05-04 18:25 | 60.56411 | 10.74743 | 8720 ft | 274 kts | 124° |
| 2026-05-04 18:25 | 60.55452 | 10.78061 | 8470 ft | 271 kts | 124° |
| 2026-05-04 18:25 | 60.54500 | 10.81356 | 8159 ft | 270 kts | 123° |
| 2026-05-04 18:26 | 60.53551 | 10.84637 | 7840 ft | 269 kts | 124° |
| 2026-05-04 18:26 | 60.52609 | 10.87886 | 7510 ft | 267 kts | 123° |
| 2026-05-04 18:26 | 60.51663 | 10.91142 | 7200 ft | 269 kts | 125° |
| 2026-05-04 18:26 | 60.50724 | 10.94360 | 6947 ft | 266 kts | 125° |
| 2026-05-04 18:27 | 60.49780 | 10.97592 | 6638 ft | 264 kts | 125° |
| 2026-05-04 18:27 | 60.48838 | 11.00811 | 6320 ft | 264 kts | 125° |
| 2026-05-04 18:27 | 60.47900 | 11.04018 | 6048 ft | 265 kts | 125° |
| 2026-05-04 18:27 | 60.46968 | 11.07191 | 5795 ft | 260 kts | 127° |
| 2026-05-04 18:28 | 60.45837 | 11.09984 | 5458 ft | 254 kts | 141° |
| 2026-05-04 18:28 | 60.44559 | 11.12476 | 5139 ft | 253 kts | 141° |
| 2026-05-04 18:28 | 60.43286 | 11.14959 | 4837 ft | 253 kts | 141° |
| 2026-05-04 18:28 | 60.41989 | 11.17259 | 4686 ft | 239 kts | 153° |
| 2026-05-04 18:29 | 60.40548 | 11.18618 | 4537 ft | 222 kts | 171° |
| 2026-05-04 18:29 | 60.39064 | 11.18998 | 4306 ft | 210 kts | 189° |
| 2026-05-04 18:29 | 60.37658 | 11.18498 | 4041 ft | 201 kts | 202° |
| 2026-05-04 18:29 | 60.36326 | 11.17718 | 3775 ft | 198 kts | 202° |
| 2026-05-04 18:30 | 60.33727 | 11.16203 | 3239 ft | 190 kts | 202° |
| 2026-05-04 18:30 | 60.32500 | 11.15491 | 2978 ft | 179 kts | 202° |
| 2026-05-04 18:30 | 60.31356 | 11.14829 | 2742 ft | 162 kts | 202° |
| 2026-05-04 18:31 | 60.30314 | 11.14224 | 2533 ft | 149 kts | 202° |
| 2026-05-04 18:31 | 60.29359 | 11.13669 | 2337 ft | 139 kts | 204° |
| 2026-05-04 18:31 | 60.28442 | 11.13134 | 2139 ft | 136 kts | 204° |
| 2026-05-04 18:31 | 60.27558 | 11.12621 | 1957 ft | 130 kts | 204° |
| 2026-05-04 18:32 | 60.26703 | 11.12124 | 1780 ft | 126 kts | 204° |
| 2026-05-04 18:32 | 60.25863 | 11.11639 | 1608 ft | 125 kts | 206° |
| 2026-05-04 18:32 | 60.25016 | 11.11168 | 1410 ft | 126 kts | 202° |
| 2026-05-04 18:32 | 60.24189 | 11.10700 | 1239 ft | 124 kts | 204° |
| 2026-05-04 18:33 | 60.23365 | 11.10208 | 1063 ft | 123 kts | 205° |
| 2026-05-04 18:33 | 60.22540 | 11.09725 | 902 ft | 123 kts | 204° |
| 2026-05-04 18:33 | 60.21716 | 11.09240 | 754 ft | 123 kts | 203° |
| 2026-05-04 18:33 | 60.20908 | 11.08775 | 678 ft | 110 kts | 199° |
| 2026-05-04 18:34 | 60.20428 | 11.08485 | 678 ft | 34 kts | 196° |
| 2026-05-04 18:34 | 60.20284 | 11.08473 | 675 ft | 14 kts | 145° |
| 2026-05-04 18:34 | 60.20249 | 11.08621 | 677 ft | 9 kts | 105° |
| 2026-05-04 18:34 | 60.20241 | 11.08677 | 678 ft | 0 kts | 105° |
| 2026-05-04 18:35 | 60.20238 | 11.08704 | 676 ft | 5 kts | 105° |
| 2026-05-04 18:35 | 60.20228 | 11.08772 | 681 ft | 10 kts | 107° |
| 2026-05-04 18:35 | 60.20200 | 11.08955 | 681 ft | 15 kts | 107° |
| 2026-05-04 18:36 | 60.20165 | 11.09182 | 680 ft | 18 kts | 107° |
| 2026-05-04 18:36 | 60.20128 | 11.09437 | 682 ft | 20 kts | 106° |
| 2026-05-04 18:36 | 60.20089 | 11.09712 | 684 ft | 20 kts | 106° |
| 2026-05-04 18:36 | 60.20050 | 11.09983 | 682 ft | 21 kts | 106° |
| 2026-05-04 18:37 | 60.20016 | 11.10221 | 686 ft | 16 kts | 106° |
| 2026-05-04 18:37 | 60.19989 | 11.10409 | 682 ft | 5 kts | 106° |
| 2026-05-04 18:37 | 60.19976 | 11.10505 | 683 ft | 9 kts | 106° |
| 2026-05-04 18:37 | 60.19917 | 11.10590 | 684 ft | 15 kts | 191° |
| 2026-05-04 18:38 | 60.19809 | 11.10530 | 682 ft | 17 kts | 196° |
| 2026-05-04 18:38 | 60.19719 | 11.10478 | 684 ft | 14 kts | 197° |
| 2026-05-04 18:38 | 60.19624 | 11.10423 | 685 ft | 15 kts | 196° |
| 2026-05-04 18:38 | 60.19546 | 11.10366 | 682 ft | 11 kts | 220° |
| 2026-05-04 18:39 | 60.19554 | 11.10218 | 681 ft | 9 kts | 287° |
| 2026-05-04 18:39 | 60.19563 | 11.10162 | 685 ft | 1 kts | 285° |
| 2026-05-04 18:39 | 60.19564 | 11.10154 | 685 ft | 0 kts | 285° |